createdAt,value
2018-07-02T00:01:51.155Z,1017.3
2018-07-02T00:07:00.268Z,1017.2
2018-07-02T00:12:02.185Z,1017.1
2018-07-02T00:17:00.119Z,1017.1
2018-07-02T00:22:01.168Z,1017.1
2018-07-02T00:27:01.094Z,1017.1
2018-07-02T00:32:00.111Z,1017
2018-07-02T00:37:02.101Z,1017
2018-07-02T00:42:08.288Z,1017.1
2018-07-02T00:47:08.734Z,1017.1
2018-07-02T00:52:11.042Z,1017
2018-07-02T00:57:09.435Z,1017.1
2018-07-02T01:02:10.030Z,1017.1
2018-07-02T01:07:08.033Z,1017.1
2018-07-02T01:12:18.336Z,1017.1
2018-07-02T01:17:16.414Z,1017.1
2018-07-02T01:22:17.865Z,1017.1
2018-07-02T01:27:21.951Z,1017.2
2018-07-02T01:32:17.928Z,1017.2
2018-07-02T01:37:18.881Z,1017.2
2018-07-02T01:42:27.333Z,1017.1
2018-07-02T01:47:27.946Z,1017.1
2018-07-02T01:52:29.930Z,1017.1
2018-07-02T01:57:29.880Z,1017.2
2018-07-02T02:02:28.870Z,1017.2
2018-07-02T02:07:31.853Z,1017.2
2018-07-02T02:12:33.819Z,1017.2
2018-07-02T02:17:29.792Z,1017.1
2018-07-02T02:22:30.730Z,1017.1
2018-07-02T02:27:32.739Z,1017.1
2018-07-02T02:32:29.689Z,1017.1
2018-07-02T02:37:40.795Z,1017.1
2018-07-02T02:42:41.721Z,1017.1
2018-07-02T02:47:37.691Z,1017.1
2018-07-02T02:52:40.690Z,1017.1
2018-07-02T02:57:37.653Z,1017
2018-07-02T03:02:40.601Z,1017.2
2018-07-02T03:07:54.028Z,1017.3
2018-07-02T03:12:50.989Z,1017.3
2018-07-02T03:17:54.650Z,1017.3
2018-07-02T03:22:52.637Z,1017.3
2018-07-02T03:27:53.633Z,1017.3
2018-07-02T03:32:53.569Z,1017.3
2018-07-02T03:37:52.543Z,1017.3
2018-07-02T03:42:55.565Z,1017.3
2018-07-02T03:47:58.543Z,1017.3
2018-07-02T03:52:57.115Z,1017.3
2018-07-02T03:57:57.488Z,1017.2
2018-07-02T04:02:58.418Z,1017.1
2018-07-02T04:07:57.386Z,1017.1
2018-07-02T04:13:04.531Z,1017.1
2018-07-02T04:18:07.481Z,1017
2018-07-02T04:23:03.406Z,1017
2018-07-02T04:28:04.198Z,1016.9
2018-07-02T04:33:03.010Z,1016.8
2018-07-02T04:38:04.323Z,1016.8
2018-07-02T04:43:20.452Z,1016.7
2018-07-02T04:48:17.398Z,1016.6
2018-07-02T04:53:18.381Z,1016.6
2018-07-02T04:58:19.296Z,1016.5
2018-07-02T05:03:17.324Z,1016.6
2018-07-02T05:08:19.313Z,1016.5
2018-07-02T05:13:30.402Z,1016.5
2018-07-02T05:18:32.334Z,1016.4
2018-07-02T05:23:29.336Z,1016.4
2018-07-02T05:28:31.306Z,1016.3
2018-07-02T05:33:32.258Z,1016.3
2018-07-02T05:38:30.227Z,1016.3
2018-07-02T05:43:37.252Z,1016.2
2018-07-02T05:48:35.270Z,1016.1
2018-07-02T05:53:37.216Z,1016
2018-07-02T05:58:38.168Z,1015.9
2018-07-02T06:03:36.145Z,1016
2018-07-02T06:08:34.982Z,1015.9
2018-07-02T06:13:42.139Z,1015.7
2018-07-02T06:18:41.052Z,1015.8
2018-07-02T06:23:41.085Z,1015.7
2018-07-02T06:28:42.066Z,1015.7
2018-07-02T06:33:46.080Z,1015.8
2018-07-02T06:38:45.990Z,1015.6
2018-07-02T06:43:56.088Z,1015.6
2018-07-02T06:48:53.021Z,1015.6
2018-07-02T06:53:55.042Z,1015.5
2018-07-02T06:58:52.005Z,1015.5
2018-07-02T07:03:54.982Z,1015.5
2018-07-02T07:08:54.031Z,1015.4
2018-07-02T07:13:59.995Z,1015.5
2018-07-02T07:19:02.982Z,1015.4
2018-07-02T07:23:59.920Z,1015.3
2018-07-02T07:29:01.905Z,1015.4
2018-07-02T07:34:04.917Z,1015.3
2018-07-02T07:39:00.834Z,1015.2
2018-07-02T07:44:06.856Z,1015
2018-07-02T07:49:05.842Z,1015
2018-07-02T07:54:06.648Z,1014.9
2018-07-02T07:59:07.584Z,1014.7
2018-07-02T08:04:05.756Z,1014.8
2018-07-02T08:09:07.723Z,1014.7
2018-07-02T08:14:12.756Z,1014.8
2018-07-02T08:19:13.266Z,1014.8
2018-07-02T08:24:17.753Z,1014.6
2018-07-02T08:29:18.689Z,1014.7
2018-07-02T08:34:16.684Z,1014.7
2018-07-02T08:39:17.655Z,1014.5
2018-07-02T08:44:28.741Z,1014.6
2018-07-02T08:49:30.728Z,1014.4
2018-07-02T08:54:27.662Z,1014.4
2018-07-02T08:59:27.866Z,1014.5
2018-07-02T09:04:30.644Z,1014.2
2018-07-02T09:09:29.613Z,1014.3
2018-07-02T09:14:45.794Z,1014.2
2018-07-02T09:19:45.909Z,1014.2
2018-07-02T09:24:43.656Z,1014.1
2018-07-02T09:29:45.660Z,1014.2
2018-07-02T09:34:42.596Z,1014.1
2018-07-02T09:39:58.729Z,1014.2
2018-07-02T09:45:01.734Z,1014.1
2018-07-02T09:50:01.658Z,1014.1
2018-07-02T09:54:59.648Z,1014.1
2018-07-02T10:00:00.594Z,1014
2018-07-02T10:04:58.574Z,1014
2018-07-02T10:10:00.572Z,1013.9
2018-07-02T10:15:00.102Z,1013.8
2018-07-02T10:20:00.538Z,1013.7
2018-07-02T10:25:01.480Z,1013.7
2018-07-02T10:30:02.450Z,1013.7
2018-07-02T10:35:20.599Z,1013.8
2018-07-02T10:40:18.579Z,1013.5
2018-07-02T10:45:22.028Z,1013.6
2018-07-02T10:50:20.517Z,1013.5
2018-07-02T10:55:19.474Z,1013.4
2018-07-02T11:00:17.728Z,1013.4
2018-07-02T11:05:26.548Z,1013.3
2018-07-02T11:10:27.503Z,1013.3
2018-07-02T11:15:27.409Z,1013.3
2018-07-02T11:20:26.048Z,1013.3
2018-07-02T11:25:27.728Z,1013.2
2018-07-02T11:30:27.449Z,1013.2
2018-07-02T11:35:34.364Z,1013
2018-07-02T11:40:32.023Z,1012.8
2018-07-02T11:45:33.353Z,1013
2018-07-02T11:50:35.345Z,1013
2018-07-02T11:55:32.277Z,1013
2018-07-02T12:00:33.261Z,1012.9
2018-07-02T12:05:50.393Z,1012.7
2018-07-02T12:10:49.950Z,1012.8
2018-07-02T12:15:49.321Z,1012.7
2018-07-02T12:20:51.282Z,1012.8
2018-07-02T12:25:50.353Z,1012.8
2018-07-02T12:30:50.249Z,1012.6
2018-07-02T12:35:57.269Z,1012.6
2018-07-02T12:40:56.268Z,1012.6
2018-07-02T12:45:58.240Z,1012.7
2018-07-02T12:50:55.186Z,1012.7
2018-07-02T12:55:57.186Z,1012.7
2018-07-02T13:00:58.165Z,1012.7
2018-07-02T13:06:10.251Z,1012.6
2018-07-02T13:11:10.629Z,1012.7
2018-07-02T13:16:07.597Z,1012.6
2018-07-02T13:21:12.155Z,1012.6
2018-07-02T13:26:11.129Z,1012.5
2018-07-02T13:31:10.259Z,1012.7
2018-07-02T13:36:24.148Z,1012.5
2018-07-02T13:41:22.176Z,1012.6
2018-07-02T13:46:25.178Z,1012.6
2018-07-02T13:51:28.170Z,1012.6
2018-07-02T13:56:29.147Z,1012.5
2018-07-02T14:01:26.107Z,1012.5
2018-07-02T14:06:29.080Z,1012.4
2018-07-02T14:11:43.180Z,1012.4
2018-07-02T14:16:40.664Z,1012.5
2018-07-02T14:21:41.421Z,1012.4
2018-07-02T14:26:45.545Z,1012.4
2018-07-02T14:31:44.107Z,1012.3
2018-07-02T14:36:46.048Z,1012.3
2018-07-02T14:42:03.227Z,1012.4
2018-07-02T14:47:04.128Z,1012.4
2018-07-02T14:52:01.163Z,1012.3
2018-07-02T14:57:01.449Z,1012.4
2018-07-02T15:02:01.107Z,1012.4
2018-07-02T15:07:03.088Z,1012.4
2018-07-02T15:12:04.024Z,1012.3
2018-07-02T15:17:16.150Z,1012.3
2018-07-02T15:22:17.142Z,1012.2
2018-07-02T15:27:15.105Z,1012.2
2018-07-02T15:32:16.066Z,1012.3
2018-07-02T15:37:17.037Z,1012.3
2018-07-02T15:42:16.005Z,1012.5
2018-07-02T15:47:30.061Z,1012.5
2018-07-02T15:52:29.089Z,1012.5
2018-07-02T15:57:29.056Z,1012.5
2018-07-02T16:02:32.016Z,1012.5
2018-07-02T16:07:29.998Z,1012.5
2018-07-02T16:12:30.977Z,1012.5
2018-07-02T16:17:31.918Z,1012.5
2018-07-02T16:22:36.610Z,1012.4
2018-07-02T16:27:37.931Z,1012.4
2018-07-02T16:32:35.950Z,1012.4
2018-07-02T16:37:38.896Z,1012.4
2018-07-02T16:42:36.771Z,1012.4
2018-07-02T16:47:36.843Z,1012.3
2018-07-02T16:52:38.845Z,1012.3
2018-07-02T16:57:54.766Z,1012.3
2018-07-02T17:02:50.033Z,1012.4
2018-07-02T17:07:50.222Z,1012.3
2018-07-02T17:12:51.400Z,1012.4
2018-07-02T17:17:51.822Z,1012.4
2018-07-02T17:22:52.765Z,1012.4
2018-07-02T17:27:58.810Z,1012.4
2018-07-02T17:32:58.686Z,1012.4
2018-07-02T17:37:57.773Z,1012.6
2018-07-02T17:43:06.835Z,1012.6
2018-07-02T17:48:08.799Z,1012.5
2018-07-02T17:53:05.087Z,1012.6
2018-07-02T17:58:21.199Z,1012.6
2018-07-02T18:03:22.832Z,1012.7
2018-07-02T18:08:21.811Z,1012.7
2018-07-02T18:13:23.809Z,1012.8
2018-07-02T18:18:26.824Z,1012.9
2018-07-02T18:23:26.770Z,1013.1
2018-07-02T18:28:33.280Z,1013.2
2018-07-02T18:33:39.846Z,1013.2
2018-07-02T18:38:33.243Z,1013.4
2018-07-02T18:43:37.754Z,1013.4
2018-07-02T18:48:33.723Z,1013.5
2018-07-02T18:53:34.363Z,1013.6
2018-07-02T18:58:41.734Z,1013.6
2018-07-02T19:03:44.737Z,1013.7
2018-07-02T19:08:47.740Z,1013.7
2018-07-02T19:13:48.663Z,1013.9
2018-07-02T19:18:47.127Z,1014
2018-07-02T19:23:48.691Z,1014
2018-07-02T19:29:03.490Z,1014
2018-07-02T19:34:02.812Z,1014.2
2018-07-02T19:39:04.743Z,1014.3
2018-07-02T19:44:05.332Z,1014.4
2018-07-02T19:49:06.478Z,1014.4
2018-07-02T19:54:03.465Z,1014.7
2018-07-02T19:59:10.959Z,1014.7
2018-07-02T20:04:10.665Z,1014.7
2018-07-02T20:09:11.535Z,1014.7
2018-07-02T20:14:15.625Z,1014.8
2018-07-02T20:19:15.508Z,1014.9
2018-07-02T20:24:15.586Z,1014.9
2018-07-02T20:29:16.564Z,1014.9
2018-07-02T20:34:24.912Z,1015
2018-07-02T20:39:26.081Z,1015
2018-07-02T20:44:25.576Z,1015.1
2018-07-02T20:49:28.566Z,1015.2
2018-07-02T20:54:27.471Z,1015.2
2018-07-02T20:59:26.506Z,1015.4
2018-07-02T21:04:30.497Z,1015.3
2018-07-02T21:09:30.771Z,1015.4
2018-07-02T21:14:30.706Z,1015.4
2018-07-02T21:19:30.418Z,1015.4
2018-07-02T21:24:32.388Z,1015.5
2018-07-02T21:29:28.530Z,1015.6
2018-07-02T21:34:38.356Z,1015.6
2018-07-02T21:39:37.645Z,1015.7
2018-07-02T21:44:56.409Z,1015.7
2018-07-02T21:49:55.485Z,1015.7
2018-07-02T21:54:54.644Z,1015.9
2018-07-02T22:00:01.486Z,1015.9
2018-07-02T22:05:02.459Z,1015.8
2018-07-02T22:10:03.418Z,1015.9
2018-07-02T22:15:01.405Z,1016
2018-07-02T22:20:02.372Z,1016.1
2018-07-02T22:25:03.338Z,1016.2
2018-07-02T22:30:13.400Z,1016.2
2018-07-02T22:35:11.392Z,1016.3
2018-07-02T22:40:11.847Z,1016.2
2018-07-02T22:45:11.338Z,1016.3
2018-07-02T22:50:13.326Z,1016.2
2018-07-02T22:55:14.238Z,1016.3
2018-07-02T23:00:24.321Z,1016.3
2018-07-02T23:05:26.333Z,1016.5
2018-07-02T23:10:24.322Z,1016.5
2018-07-02T23:15:26.301Z,1016.4
2018-07-02T23:20:30.318Z,1016.5
2018-07-02T23:25:26.256Z,1016.5
2018-07-02T23:30:31.457Z,1016.5
2018-07-02T23:35:31.240Z,1016.4
2018-07-02T23:40:30.143Z,1016.4
2018-07-02T23:45:30.161Z,1016.4
2018-07-02T23:50:29.833Z,1016.4
2018-07-02T23:55:32.429Z,1016.4
